PWSweather.com
Personal Weather Stations
Station Observations
IMAZOWIE6
WarszawaPL

WarszawaPL

Lat: 52.27957, Lon: 21.05489

Elevation: 100

Station Type: WS1080

http://stacjapogody.waw.pl/

High Low Average
Temperature 36.0°F2.2°C 34.0°F1.1°C 35.1°F1.7°C
Dew Point 16.1°F-8.8°C 13.6°F-10.2°C 15.1°F-9.4°C
Winds 3.4 mph 5.5 kmh Calm Calm 1.0 mph N1.6 kmh N
Wind Gusts 8.2 mph13.2 kmh -- 4.0 mph6.4 kmh
Humidity 45% 43% 44%
Pressure 29.65 in1004.1 mb 29.07 in984.4 mb -
Precipitation 0.00 in0.0 mm - -
Hour Temp Dew Point Humidity Winds Wind Gusts Pressure Precip Precip Rate Daily Precip Total
12:03 AM 34.0°F1.1°C 13.1°F-10.5°C 42% Calm Calm -- 29.04 in983.4 mb 0.00 in0.0 mm 0.00 in0.0 mm 0.00 in0.0 mm
12:18 AM 34.2°F1.2°C 13.2°F-10.4°C 42% Calm Calm -- 29.05 in983.7 mb 0.00 in0.0 mm 0.00 in0.0 mm 0.00 in0.0 mm
12:33 AM 34.2°F1.2°C 13.2°F-10.4°C 42% Calm Calm -- 29.05 in983.7 mb 0.00 in0.0 mm 0.00 in0.0 mm 0.00 in0.0 mm
12:48 AM 34.2°F1.2°C 13.2°F-10.4°C 42% Calm Calm -- 29.06 in984.1 mb 0.00 in0.0 mm 0.00 in0.0 mm 0.00 in0.0 mm
01:03 AM 34.7°F1.5°C 14.3°F-9.8°C 43% Calm Calm -- 29.07 in984.4 mb 0.00 in0.0 mm 0.00 in0.0 mm 0.00 in0.0 mm
01:18 AM 34.5°F1.4°C 14.1°F-9.9°C 43% Calm Calm -- 29.08 in984.8 mb 0.00 in0.0 mm 0.00 in0.0 mm 0.00 in0.0 mm
01:33 AM 34.2°F1.2°C 13.8°F-10.1°C 43% Calm Calm -- 29.08 in984.8 mb 0.00 in0.0 mm 0.00 in0.0 mm 0.00 in0.0 mm
01:48 AM 34.0°F1.1°C 13.6°F-10.2°C 43% Calm Calm -- 29.08 in984.8 mb 0.00 in0.0 mm 0.00 in0.0 mm 0.00 in0.0 mm
02:03 AM 34.2°F1.2°C 13.8°F-10.1°C 43% Calm Calm -- 29.09 in985.1 mb 0.00 in0.0 mm 0.00 in0.0 mm 0.00 in0.0 mm
02:18 AM 34.0°F1.1°C 13.6°F-10.2°C 43% Calm Calm -- 29.10 in985.4 mb 0.00 in0.0 mm 0.00 in0.0 mm 0.00 in0.0 mm
02:33 AM 34.0°F1.1°C 13.6°F-10.2°C 43% Calm Calm -- 29.10 in985.4 mb 0.00 in0.0 mm 0.00 in0.0 mm 0.00 in0.0 mm
02:48 AM 34.0°F1.1°C 13.6°F-10.2°C 43% Calm Calm -- 29.11 in985.8 mb 0.00 in0.0 mm 0.00 in0.0 mm 0.00 in0.0 mm
03:03 AM 34.2°F1.2°C 13.8°F-10.1°C 43% 0.6 mph N1.0 kmh N 2.8 mph4.5 kmh 29.11 in985.8 mb 0.00 in0.0 mm 0.00 in0.0 mm 0.00 in0.0 mm
03:18 AM 34.0°F1.1°C 13.6°F-10.2°C 43% Calm Calm -- 29.12 in986.1 mb 0.00 in0.0 mm 0.00 in0.0 mm 0.00 in0.0 mm
03:33 AM 34.0°F1.1°C 13.6°F-10.2°C 43% Calm Calm -- 29.13 in986.5 mb 0.00 in0.0 mm 0.00 in0.0 mm 0.00 in0.0 mm
03:48 AM 34.0°F1.1°C 13.6°F-10.2°C 43% Calm Calm -- 29.13 in986.5 mb 0.00 in0.0 mm 0.00 in0.0 mm 0.00 in0.0 mm
04:03 AM 34.0°F1.1°C 13.6°F-10.2°C 43% Calm Calm -- 29.14 in986.8 mb 0.00 in0.0 mm 0.00 in0.0 mm 0.00 in0.0 mm
04:19 AM 34.0°F1.1°C 13.6°F-10.2°C 43% Calm Calm -- 29.14 in986.8 mb 0.00 in0.0 mm 0.00 in0.0 mm 0.00 in0.0 mm
04:33 AM 34.0°F1.1°C 13.6°F-10.2°C 43% Calm Calm -- 29.15 in987.1 mb 0.00 in0.0 mm 0.00 in0.0 mm 0.00 in0.0 mm
04:48 AM 34.0°F1.1°C 13.6°F-10.2°C 43% 0.6 mph N1.0 kmh N 4.0 mph6.4 kmh 29.16 in987.5 mb 0.00 in0.0 mm 0.00 in0.0 mm 0.00 in0.0 mm
05:03 AM 34.0°F1.1°C 13.6°F-10.2°C 43% Calm Calm -- 29.17 in987.8 mb 0.00 in0.0 mm 0.00 in0.0 mm 0.00 in0.0 mm
05:18 AM 34.0°F1.1°C 13.6°F-10.2°C 43% 1.4 mph N2.3 kmh N 5.4 mph8.7 kmh 29.18 in988.1 mb 0.00 in0.0 mm 0.00 in0.0 mm 0.00 in0.0 mm
05:33 AM 34.2°F1.2°C 13.8°F-10.1°C 43% Calm Calm -- 29.18 in988.1 mb 0.00 in0.0 mm 0.00 in0.0 mm 0.00 in0.0 mm
05:48 AM 34.2°F1.2°C 14.3°F-9.8°C 44% Calm Calm -- 29.19 in988.5 mb 0.00 in0.0 mm 0.00 in0.0 mm 0.00 in0.0 mm
06:03 AM 34.2°F1.2°C 14.3°F-9.8°C 44% Calm Calm -- 29.20 in988.8 mb 0.00 in0.0 mm 0.00 in0.0 mm 0.00 in0.0 mm
06:18 AM 34.2°F1.2°C 14.3°F-9.8°C 44% 0.6 mph N1.0 kmh N 3.4 mph5.5 kmh 29.20 in988.8 mb 0.00 in0.0 mm 0.00 in0.0 mm 0.00 in0.0 mm
06:33 AM 34.3°F1.3°C 14.5°F-9.7°C 44% Calm Calm 2.8 mph4.5 kmh 29.21 in989.2 mb 0.00 in0.0 mm 0.00 in0.0 mm 0.00 in0.0 mm
06:48 AM 34.5°F1.4°C 14.6°F-9.7°C 44% 2.0 mph N3.2 kmh N 5.4 mph8.7 kmh 29.21 in989.2 mb 0.00 in0.0 mm 0.00 in0.0 mm 0.00 in0.0 mm
07:03 AM 34.3°F1.3°C 14.5°F-9.7°C 44% 2.0 mph N3.2 kmh N 4.0 mph6.4 kmh 29.22 in989.5 mb 0.00 in0.0 mm 0.00 in0.0 mm 0.00 in0.0 mm
07:18 AM 34.3°F1.3°C 14.5°F-9.7°C 44% 3.4 mph N5.5 kmh N 6.2 mph10.0 kmh 29.23 in989.8 mb 0.00 in0.0 mm 0.00 in0.0 mm 0.00 in0.0 mm
07:33 AM 34.5°F1.4°C 14.6°F-9.7°C 44% 3.4 mph N5.5 kmh N 6.8 mph10.9 kmh 29.24 in990.2 mb 0.00 in0.0 mm 0.00 in0.0 mm 0.00 in0.0 mm
07:48 AM 34.3°F1.3°C 14.5°F-9.7°C 44% 3.4 mph N5.5 kmh N 5.4 mph8.7 kmh 29.25 in990.5 mb 0.00 in0.0 mm 0.00 in0.0 mm 0.00 in0.0 mm
08:03 AM 34.7°F1.5°C 14.8°F-9.6°C 44% 2.0 mph N3.2 kmh N 4.8 mph7.7 kmh 29.26 in990.9 mb 0.00 in0.0 mm 0.00 in0.0 mm 0.00 in0.0 mm
08:18 AM 34.7°F1.5°C 14.8°F-9.6°C 44% 2.0 mph N3.2 kmh N 4.0 mph6.4 kmh 29.26 in990.9 mb 0.00 in0.0 mm 0.00 in0.0 mm 0.00 in0.0 mm
08:33 AM 34.9°F1.6°C 15.0°F-9.4°C 44% 2.8 mph N4.5 kmh N 5.4 mph8.7 kmh 29.27 in991.2 mb 0.00 in0.0 mm 0.00 in0.0 mm 0.00 in0.0 mm
08:48 AM 34.9°F1.6°C 15.0°F-9.4°C 44% 2.8 mph N4.5 kmh N 4.8 mph7.7 kmh 29.28 in991.5 mb 0.01 in0.3 mm 0.05 in1.3 mm 0.01 in0.3 mm
09:03 AM 34.9°F1.6°C 15.0°F-9.4°C 44% 2.8 mph N4.5 kmh N 6.2 mph10.0 kmh 29.29 in991.9 mb 0.01 in0.3 mm 0.00 in0.0 mm 0.01 in0.3 mm
09:18 AM 35.1°F1.7°C 15.1°F-9.4°C 44% 1.4 mph N2.3 kmh N 4.0 mph6.4 kmh 29.30 in992.2 mb 0.02 in0.5 mm 0.05 in1.3 mm 0.02 in0.5 mm
09:33 AM 35.2°F1.8°C 15.3°F-9.3°C 44% 3.4 mph N5.5 kmh N 6.8 mph10.9 kmh 29.31 in992.6 mb 0.04 in1.0 mm 0.05 in1.3 mm 0.04 in1.0 mm
09:48 AM 34.9°F1.6°C 15.0°F-9.4°C 44% 2.8 mph N4.5 kmh N 6.2 mph10.0 kmh 29.31 in992.6 mb 0.05 in1.3 mm 0.05 in1.3 mm 0.05 in1.3 mm
10:03 AM 35.2°F1.8°C 15.3°F-9.3°C 44% 3.4 mph N5.5 kmh N 7.4 mph11.9 kmh 29.32 in992.9 mb 0.06 in1.5 mm 0.02 in0.5 mm 0.06 in1.5 mm
10:18 AM 35.2°F1.8°C 15.8°F-9.0°C 45% 1.4 mph N2.3 kmh N 5.4 mph8.7 kmh 29.32 in992.9 mb 0.01 in0.3 mm 0.00 in0.0 mm 0.06 in1.5 mm
10:33 AM 35.4°F1.9°C 16.0°F-8.9°C 45% 2.8 mph N4.5 kmh N 6.2 mph10.0 kmh 29.33 in993.2 mb 0.02 in0.5 mm 0.05 in1.3 mm 0.07 in1.8 mm
10:48 AM 35.6°F2.0°C 15.6°F-9.1°C 44% 2.8 mph N4.5 kmh N 6.8 mph10.9 kmh 29.34 in993.6 mb 0.04 in1.0 mm 0.05 in1.3 mm 0.09 in2.3 mm
11:03 AM 35.4°F1.9°C 16.0°F-8.9°C 45% 2.0 mph N3.2 kmh N 7.4 mph11.9 kmh 29.34 in993.6 mb 0.04 in1.0 mm 0.00 in0.0 mm 0.09 in2.3 mm
11:18 AM 35.4°F1.9°C 16.0°F-8.9°C 45% 2.0 mph N3.2 kmh N 4.0 mph6.4 kmh 29.35 in993.9 mb 0.02 in0.5 mm 0.00 in0.0 mm 0.09 in2.3 mm
11:33 AM 35.4°F1.9°C 15.5°F-9.2°C 44% 2.0 mph N3.2 kmh N 5.4 mph8.7 kmh 29.36 in994.2 mb 0.02 in0.5 mm 0.00 in0.0 mm 0.09 in2.3 mm
11:48 AM 35.4°F1.9°C 16.0°F-8.9°C 45% 1.4 mph N2.3 kmh N 4.8 mph7.7 kmh 29.37 in994.6 mb 0.05 in1.3 mm 0.10 in2.5 mm 0.11 in2.8 mm
12:03 PM 35.6°F2.0°C 16.1°F-8.8°C 45% 0.6 mph N1.0 kmh N 4.8 mph7.7 kmh 29.37 in994.6 mb 0.05 in1.3 mm 0.00 in0.0 mm 0.11 in2.8 mm
12:18 PM 35.6°F2.0°C 16.1°F-8.8°C 45% 3.4 mph N5.5 kmh N 6.8 mph10.9 kmh 29.38 in994.9 mb 0.02 in0.5 mm 0.00 in0.0 mm 0.11 in2.8 mm
12:33 PM 35.8°F2.1°C 15.8°F-9.0°C 44% 2.8 mph N4.5 kmh N 8.2 mph13.2 kmh 29.39 in995.3 mb 0.04 in1.0 mm 0.05 in1.3 mm 0.12 in3.0 mm
12:48 PM 35.6°F2.0°C 16.1°F-8.8°C 45% 2.0 mph N3.2 kmh N 6.8 mph10.9 kmh 29.39 in995.3 mb 0.05 in1.3 mm 0.05 in1.3 mm 0.14 in3.6 mm
01:03 PM 35.6°F2.0°C 16.1°F-8.8°C 45% 2.0 mph N3.2 kmh N 6.2 mph10.0 kmh 29.40 in995.6 mb 0.06 in1.5 mm 0.02 in0.5 mm 0.15 in3.8 mm
01:18 PM 35.4°F1.9°C 16.0°F-8.9°C 45% 2.8 mph N4.5 kmh N 6.2 mph10.0 kmh 29.41 in995.9 mb 0.01 in0.3 mm 0.00 in0.0 mm 0.15 in3.8 mm
01:33 PM 35.6°F2.0°C 15.6°F-9.1°C 44% 1.4 mph N2.3 kmh N 3.4 mph5.5 kmh 29.41 in995.9 mb 0.02 in0.5 mm 0.05 in1.3 mm 0.16 in4.1 mm
01:48 PM 35.6°F2.0°C 15.6°F-9.1°C 44% 2.8 mph N4.5 kmh N 6.2 mph10.0 kmh 29.42 in996.3 mb 0.04 in1.0 mm 0.05 in1.3 mm 0.17 in4.3 mm
02:03 PM 35.8°F2.1°C 15.8°F-9.0°C 44% 2.0 mph N3.2 kmh N 4.8 mph7.7 kmh 29.43 in996.6 mb 0.05 in1.3 mm 0.02 in0.5 mm 0.18 in4.6 mm
02:18 PM 35.4°F1.9°C 15.5°F-9.2°C 44% 3.4 mph N5.5 kmh N 6.2 mph10.0 kmh 29.44 in997.0 mb 0.01 in0.3 mm 0.00 in0.0 mm 0.18 in4.6 mm
02:33 PM 35.4°F1.9°C 15.5°F-9.2°C 44% 2.8 mph N4.5 kmh N 5.4 mph8.7 kmh 29.44 in997.0 mb 0.02 in0.5 mm 0.05 in1.3 mm 0.20 in5.1 mm
02:48 PM 35.4°F1.9°C 15.5°F-9.2°C 44% 1.4 mph N2.3 kmh N 3.4 mph5.5 kmh 29.45 in997.3 mb 0.04 in1.0 mm 0.05 in1.3 mm 0.21 in5.3 mm
03:03 PM 35.4°F1.9°C 15.5°F-9.2°C 44% 1.4 mph N2.3 kmh N 4.8 mph7.7 kmh 29.45 in997.3 mb 0.04 in1.0 mm 0.00 in0.0 mm 0.21 in5.3 mm
03:18 PM 35.2°F1.8°C 15.3°F-9.3°C 44% 0.6 mph N1.0 kmh N 2.8 mph4.5 kmh 29.46 in997.6 mb 0.01 in0.3 mm 0.00 in0.0 mm 0.21 in5.3 mm
03:33 PM 35.2°F1.8°C 15.3°F-9.3°C 44% 0.6 mph N1.0 kmh N 3.4 mph5.5 kmh 29.47 in998.0 mb 0.02 in0.5 mm 0.05 in1.3 mm 0.22 in5.6 mm
03:48 PM 35.2°F1.8°C 15.3°F-9.3°C 44% 2.0 mph N3.2 kmh N 3.4 mph5.5 kmh 29.47 in998.0 mb 0.02 in0.5 mm 0.00 in0.0 mm 0.22 in5.6 mm
04:03 PM 35.2°F1.8°C 15.3°F-9.3°C 44% 2.0 mph N3.2 kmh N 4.0 mph6.4 kmh 29.48 in998.3 mb 0.02 in0.5 mm 0.00 in0.0 mm 0.22 in5.6 mm
04:18 PM 35.2°F1.8°C 15.3°F-9.3°C 44% 2.8 mph N4.5 kmh N 5.4 mph8.7 kmh 29.49 in998.6 mb 0.01 in0.3 mm 0.00 in0.0 mm 0.22 in5.6 mm
04:33 PM 35.6°F2.0°C 15.6°F-9.1°C 44% 1.4 mph N2.3 kmh N 4.8 mph7.7 kmh 29.49 in998.6 mb 0.01 in0.3 mm 0.00 in0.0 mm 0.22 in5.6 mm
04:48 PM 35.2°F1.8°C 15.3°F-9.3°C 44% 2.8 mph N4.5 kmh N 4.8 mph7.7 kmh 29.50 in999.0 mb 0.02 in0.5 mm 0.05 in1.3 mm 0.23 in5.8 mm
05:03 PM 35.2°F1.8°C 15.3°F-9.3°C 44% 1.4 mph N2.3 kmh N 3.4 mph5.5 kmh 29.51 in999.3 mb 0.02 in0.5 mm 0.00 in0.0 mm 0.23 in5.8 mm
05:18 PM 35.4°F1.9°C 15.5°F-9.2°C 44% 1.4 mph N2.3 kmh N 3.4 mph5.5 kmh 29.51 in999.3 mb 0.00 in0.0 mm 0.00 in0.0 mm 0.23 in5.8 mm
05:33 PM 35.4°F1.9°C 15.5°F-9.2°C 44% 2.0 mph N3.2 kmh N 4.0 mph6.4 kmh 29.51 in999.3 mb 0.01 in0.3 mm 0.05 in1.3 mm 0.25 in6.4 mm
05:48 PM 35.8°F2.1°C 15.8°F-9.0°C 44% 2.8 mph N4.5 kmh N 5.4 mph8.7 kmh 29.52 in999.7 mb 0.01 in0.3 mm 0.00 in0.0 mm 0.25 in6.4 mm
06:03 PM 35.8°F2.1°C 15.8°F-9.0°C 44% 1.4 mph N2.3 kmh N 5.4 mph8.7 kmh 29.53 in1000.0 mb 0.01 in0.3 mm 0.00 in0.0 mm 0.25 in6.4 mm
06:18 PM 35.6°F2.0°C 15.6°F-9.1°C 44% 2.0 mph N3.2 kmh N 4.0 mph6.4 kmh 29.53 in1000.0 mb 0.01 in0.3 mm 0.00 in0.0 mm 0.25 in6.4 mm
06:33 PM 35.6°F2.0°C 15.6°F-9.1°C 44% 1.4 mph N2.3 kmh N 4.8 mph7.7 kmh 29.54 in1000.3 mb 0.01 in0.3 mm 0.00 in0.0 mm 0.25 in6.4 mm
06:48 PM 35.4°F1.9°C 15.5°F-9.2°C 44% 2.0 mph N3.2 kmh N 4.8 mph7.7 kmh 29.54 in1000.3 mb 0.02 in0.5 mm 0.05 in1.3 mm 0.26 in6.6 mm
07:03 PM 35.6°F2.0°C 15.6°F-9.1°C 44% 0.6 mph N1.0 kmh N 3.4 mph5.5 kmh 29.55 in1000.7 mb 0.02 in0.5 mm 0.00 in0.0 mm 0.26 in6.6 mm
07:18 PM 35.4°F1.9°C 15.5°F-9.2°C 44% 2.0 mph N3.2 kmh N 4.0 mph6.4 kmh 29.56 in1001.0 mb 0.00 in0.0 mm 0.00 in0.0 mm 0.26 in6.6 mm
07:33 PM 35.4°F1.9°C 15.5°F-9.2°C 44% 1.4 mph N2.3 kmh N 3.4 mph5.5 kmh 29.57 in1001.4 mb 0.01 in0.3 mm 0.05 in1.3 mm 0.27 in6.9 mm
07:48 PM 35.6°F2.0°C 15.6°F-9.1°C 44% Calm Calm 2.0 mph3.2 kmh 29.57 in1001.4 mb 0.01 in0.3 mm 0.00 in0.0 mm 0.27 in6.9 mm
08:03 PM 35.8°F2.1°C 15.8°F-9.0°C 44% 0.6 mph N1.0 kmh N 2.8 mph4.5 kmh 29.57 in1001.4 mb 0.01 in0.3 mm 0.00 in0.0 mm 0.27 in6.9 mm
08:18 PM 35.6°F2.0°C 15.6°F-9.1°C 44% 1.4 mph N2.3 kmh N 2.8 mph4.5 kmh 29.58 in1001.7 mb 0.00 in0.0 mm 0.00 in0.0 mm 0.27 in6.9 mm
08:33 PM 35.4°F1.9°C 15.5°F-9.2°C 44% 1.4 mph N2.3 kmh N 3.4 mph5.5 kmh 29.58 in1001.7 mb 0.01 in0.3 mm 0.05 in1.3 mm 0.28 in7.1 mm
08:48 PM 35.4°F1.9°C 15.5°F-9.2°C 44% 2.0 mph N3.2 kmh N 3.4 mph5.5 kmh 29.59 in1002.0 mb 0.01 in0.3 mm 0.00 in0.0 mm 0.28 in7.1 mm
09:03 PM 35.8°F2.1°C 15.8°F-9.0°C 44% Calm Calm 2.8 mph4.5 kmh 29.60 in1002.4 mb 0.01 in0.3 mm 0.00 in0.0 mm 0.28 in7.1 mm
09:18 PM 35.8°F2.1°C 15.8°F-9.0°C 44% Calm Calm 2.8 mph4.5 kmh 29.60 in1002.4 mb 0.00 in0.0 mm 0.00 in0.0 mm 0.28 in7.1 mm
09:33 PM 36.0°F2.2°C 15.9°F-8.9°C 44% 1.4 mph N2.3 kmh N 3.4 mph5.5 kmh 29.61 in1002.7 mb 0.01 in0.3 mm 0.05 in1.3 mm 0.30 in7.6 mm
09:48 PM 35.8°F2.1°C 15.8°F-9.0°C 44% 2.0 mph N3.2 kmh N 5.4 mph8.7 kmh 29.61 in1002.7 mb 0.01 in0.3 mm 0.00 in0.0 mm 0.30 in7.6 mm
10:03 PM 35.6°F2.0°C 15.1°F-9.4°C 43% 0.6 mph N1.0 kmh N 2.8 mph4.5 kmh 29.61 in1002.7 mb 0.01 in0.3 mm 0.00 in0.0 mm 0.30 in7.6 mm
10:18 PM 35.8°F2.1°C 15.8°F-9.0°C 44% 2.0 mph N3.2 kmh N 3.4 mph5.5 kmh 29.62 in1003.0 mb 0.00 in0.0 mm 0.00 in0.0 mm 0.30 in7.6 mm
10:33 PM 36.0°F2.2°C 15.9°F-8.9°C 44% 0.6 mph N1.0 kmh N 2.8 mph4.5 kmh 29.62 in1003.0 mb 0.01 in0.3 mm 0.05 in1.3 mm 0.31 in7.9 mm
10:48 PM 36.0°F2.2°C 15.9°F-8.9°C 44% 2.0 mph N3.2 kmh N 4.0 mph6.4 kmh 29.63 in1003.4 mb 0.01 in0.3 mm 0.00 in0.0 mm 0.31 in7.9 mm
11:03 PM 35.8°F2.1°C 15.3°F-9.3°C 43% Calm Calm 1.4 mph2.3 kmh 29.64 in1003.7 mb 0.01 in0.3 mm 0.00 in0.0 mm 0.31 in7.9 mm
11:18 PM 35.8°F2.1°C 15.3°F-9.3°C 43% Calm Calm 2.8 mph4.5 kmh 29.64 in1003.7 mb 0.00 in0.0 mm 0.00 in0.0 mm 0.31 in7.9 mm
11:33 PM 36.0°F2.2°C 15.9°F-8.9°C 44% 0.6 mph N1.0 kmh N 2.8 mph4.5 kmh 29.65 in1004.1 mb 0.00 in0.0 mm 0.00 in0.0 mm 0.31 in7.9 mm
11:48 PM 36.0°F2.2°C 15.9°F-8.9°C 44% Calm Calm 2.8 mph4.5 kmh 29.65 in1004.1 mb 0.01 in0.3 mm 0.05 in1.3 mm 0.32 in8.1 mm